Sheridan, IL (60551)

7:19 AM CDT on April 26, 2015 (GMT -0500)
Weather at Chuck and Pats | | Change Station
CLOSE
Current Station
Personal Weather Station
Location: Serena, IL
Elevation: 645 ft
Nearby Weather Stations

Elev 645 ft 41.51 °N, 88.74 °W | Updated 0 second ago

Clear
Clear
39.1 °F
Feels Like 37 °F
N
3.5
Wind Variable Wind from NNE
Gusts 4.6 mph

Today
High -- | Low -- °F
--% Chance of Precip.
Yesterday
High -- | Low -- °F
Precip. -- in
5:58 AM 7:47 PM
First Quarter, 55% visible
Pressure 29.92 in
Visibility 10.0 miles
Clouds Clear
Windchill 37 °F
Dew Point 35 °F
Humidity 85%
Rainfall 0.00 in
Snow Depth Not available.
UV 0 out of 12
Pollen 9.70 out of 12
Air Quality Not available.
Flu Activity Regional
METAR KC09 261155Z AUTO 01004KT 10SM CLR 03/00 A2992 RMK AO2 T00251001 10031 20015

More Conditions Fewer Conditions

Pressure 29.92 in
Visibility 10.0 miles
Clouds Clear
Windchill 37 °F
Dew Point 35 °F
Humidity 85%
Rainfall 0.00 in
Snow Depth Not available.
UV 0 out of 12
Pollen 9.70 out of 12
Air Quality Not available.
Flu Activity Regional
METAR KC09 261155Z AUTO 01004KT 10SM CLR 03/00 A2992 RMK AO2 T00251001 10031 20015

More Conditions Fewer Conditions

The full scope of the disaster following a powerful 7.8-magnitude earthquake in Nepal may not come into view for days, but global charities are already sending emergency aid. Click to see how you can help.

10-Day Weather Forecast

Almanac

Astronomy

Apr. 26, 2015 Rise Set
Actual Time
Civil Twilight
Nautical Twilight
Astronomical Twilight
Moon
Length of Visible Light
Length of Day
Tomorrow will be .
, % of the Moon is Illuminated

Today's Extremes

State Highs State Lows

Community

WunderPhotos

Upload Photos

1,816,967 photos uploaded!

WunderBlogs® & News

Nearby

Air Quality

  Air Quality AQ Index Pollutant
Not available.

Snow Depth

Station Depth Elevation

Earthquake Activity

City Distance Mag. Time & Date
Minimum magnitude displayed is 2.5.

Coastal Water Temperatures

Place Temperature

Stations

Nearby Weather Stations

Station Location Temp. Windchill Dew Point Humidity Wind Precip. Elev Updated Type